Mercer, PA (16137)

3:33 PM EDT on September 16, 2014 (GMT -0400)
Lake Latonka | Change Station
CLOSE
Current Station
Personal Weather Station
Location: Mercer, PA
Elevation: 1178 ft
Nearby Weather Stations

Elev 1178 ft 41.29 °N, 80.18 °W | Updated 9 minutes ago

Partly Cloudy
Partly Cloudy
63.6 °F
Feels Like 63.6 °F
N
0.0
Wind Variable Wind from SW
Gusts 2.0 mph

Today
High -- | Low -- °F
--% Chance of Precip.
Yesterday
High -- | Low -- °F
Precip. -- in
7:02 AM 7:28 PM
Last Quarter, 43% visible
Pressure 30.14 in
Visibility 10.0 miles
Clouds Few 2800 ft
Scattered Clouds 3300 ft
Dew Point 54 °F
Humidity 70%
Rainfall 0.18 in
Snow Depth Not available.
UV 5 out of 12
Pollen 3.30 out of 12
Air Quality Not available.
Flu Activity Not available.
METAR KUCP 161856Z AUTO 27003KT 10SM FEW028 SCT033 19/11 A3010 RMK AO2 TSNO T01940111 SLP206

More Conditions Fewer Conditions

Pressure 30.14 in
Visibility 10.0 miles
Clouds Few 2800 ft
Scattered Clouds 3300 ft
Dew Point 54 °F
Humidity 70%
Rainfall 0.18 in
Snow Depth Not available.
UV 5 out of 12
Pollen 3.30 out of 12
Air Quality Not available.
Flu Activity Not available.
METAR KUCP 161856Z AUTO 27003KT 10SM FEW028 SCT033 19/11 A3010 RMK AO2 TSNO T01940111 SLP206

More Conditions Fewer Conditions

10-Day Weather Forecast

Almanac

Astronomy

Sep. 16, 2014 Rise Set
Actual Time 7:02 AM EDT 7:28 PM EDT
Civil Twilight 6:34 AM EDT 7:56 PM EDT
Nautical Twilight 6:02 AM EDT 8:28 PM EDT
Astronomical Twilight 5:28 AM EDT 9:01 PM EDT
Moon 12:08 AM EDT 2:53 PM EDT
Length of Visible Light 13h 21m
Length of Day
12h 26m
Tomorrow will be 2m 43s shorter.
Last Quarter, 43% of the Moon is Illuminated
Today
Last Quarter
Sep 24
New
Oct 1
First Quarter
Oct 8
Full
Oct 15
Last Quarter

Today's Extremes

State Highs State Lows

Community

WunderPhotos

Upload Photos

1,753,860 photos uploaded!

Nearby

Snow Depth

Station Depth Elevation
No new snow has been reported.

Earthquake Activity

City Distance Mag. Time & Date
No recent earthquake activity has been reported nearby.
Minimum magnitude displayed is 2.5.

Coastal Water Temperatures

Place Temperature
No Stations Reporting

Nearby Weather Stations